Time;durP1;ratioP1;P1;durP2;ratioP2;P2;SDS_P1;SDS_P2;PMS_P1;PMS_P2;Temp;Humidity;BMP_temperature;BMP_pressure;BME280_temperature;BME280_humidity;BME280_pressure;Samples;Min_cycle;Max_cycle;Signal;HPM_P1;HPM_P2
2023/03/11 00:00:11;;;;;;;;;;;;;;;11.37;98.68;93434.94;5155700;27;1064;-58
2023/03/11 00:02:40;;;;;;;;;;;;;;;11.40;98.66;93436.34;5155383;27;1067;-58
2023/03/11 00:05:07;;;;;;;;;;;;;;;11.41;98.54;93438.84;5137266;27;1040;-58
2023/03/11 00:07:33;;;;;;;;;;;;;;;11.30;99.10;93440.28;5154886;27;1117;-59
2023/03/11 00:09:59;;;;;;;;;;;;;;;11.27;99.10;93446.06;5137010;27;973;-58
2023/03/11 00:12:25;;;;;;;;;;;;;;;11.31;98.59;93441.13;5139136;27;1523;-59
2023/03/11 00:14:51;;;;;;;;;;;;;;;11.33;98.51;93447.91;5134665;27;1990;-58
2023/03/11 00:17:18;;;;;;;;;;;;;;;11.41;97.95;93446.88;5134392;27;1075;-59
2023/03/11 00:19:44;;;;;;;;;;;;;;;11.45;97.90;93453.44;5134581;27;972;-58
2023/03/11 00:22:10;;;;;;;;;;;;;;;11.51;97.60;93459.81;5134724;28;949;-59
2023/03/11 00:24:36;;;;;;;;;;;;;;;11.45;98.26;93461.47;5134508;28;989;-59
2023/03/11 00:27:02;;;;;;;;;;;;;;;11.56;97.65;93468.06;5134367;28;1992;-58
2023/03/11 00:29:28;;;;;;;;;;;;;;;11.62;97.01;93461.84;5134168;28;1057;-59
2023/03/11 00:31:54;;;;;;;;;;;;;;;11.63;97.04;93462.66;5134517;28;1040;-59
2023/03/11 00:34:20;;;;;;;;;;;;;;;11.61;97.38;93462.06;5134379;28;1917;-58
2023/03/11 00:36:46;;;;;;;;;;;;;;;11.57;97.74;93471.53;5134265;28;1065;-58
2023/03/11 00:39:12;;;;;;;;;;;;;;;11.43;98.73;93450.16;5134284;28;977;-58
2023/03/11 00:41:39;;;;;;;;;;;;;;;11.45;98.93;93450.75;5134546;28;1048;-58
2023/03/11 00:44:06;;;;;;;;;;;;;;;11.46;98.59;93439.03;5134113;28;1106;-58
2023/03/11 00:46:32;;;;;;;;;;;;;;;11.30;99.26;93436.78;5134362;28;1008;-58
2023/03/11 00:48:58;;;;;;;;;;;;;;;11.16;100.00;93430.63;5134350;28;1036;-57
2023/03/11 00:51:24;;;;;;;;;;;;;;;11.15;100.00;93434.31;5134212;28;1039;-58
2023/03/11 00:53:50;;;;;;;;;;;;;;;11.23;99.34;93433.28;5134370;28;1048;-58
2023/03/11 00:56:16;;;;;;;;;;;;;;;11.18;99.26;93425.91;5134013;28;1906;-58
2023/03/11 00:58:43;;;;;;;;;;;;;;;10.87;99.96;93405.97;5134031;28;1037;-58
2023/03/11 01:01:10;;;;;;;;;;;;;;;10.81;100.00;93403.28;5134314;28;1013;-58
2023/03/11 01:03:37;;;;;;;;;;;;;;;10.84;100.00;93405.53;5134018;28;1040;-58
2023/03/11 01:06:04;;;;;;;;;;;;;;;10.86;100.00;93406.16;5134166;28;1016;-58
2023/03/11 01:08:30;;;;;;;;;;;;;;;10.82;100.00;93389.72;5134026;28;1056;-58
2023/03/11 01:10:57;;;;;;;;;;;;;;;10.82;100.00;93394.25;5137074;27;1516;-58
2023/03/11 01:13:24;;;;;;;;;;;;;;;10.88;99.97;93388.88;5154324;27;1580;-58
2023/03/11 01:15:50;;;;;;;;;;;;;;;10.97;99.43;93376.13;5154515;27;1984;-57
2023/03/11 01:18:17;;;;;;;;;;;;;;;11.01;99.32;93361.31;5155476;27;984;-57
2023/03/11 01:20:43;;;;;;;;;;;;;;;10.97;98.89;93349.41;5140049;27;1073;-58
2023/03/11 01:23:09;;;;;;;;;;;;;;;10.97;98.84;93348.59;5140091;27;1108;-57
2023/03/11 01:25:35;;;;;;;;;;;;;;;10.95;99.54;93356.81;5140120;27;980;-57
2023/03/11 01:28:02;;;;;;;;;;;;;;;10.81;96.44;93355.16;5140024;27;963;-57
2023/03/11 01:30:28;;;;;;;;;;;;;;;10.74;95.06;93349.81;5158211;27;1631;-57
2023/03/11 01:32:55;;;;;;;;;;;;;;;10.74;91.84;93350.63;5158495;27;1039;-57
2023/03/11 01:35:22;;;;;;;;;;;;;;;10.76;91.51;93353.13;5157961;27;1988;-56
2023/03/11 01:37:49;;;;;;;;;;;;;;;10.68;91.45;93350.63;5158269;27;1040;-57
2023/03/11 01:40:20;;;;;;;;;;;;;;;10.71;91.63;93363.59;5158001;27;1161;-58
2023/03/11 01:42:46;;;;;;;;;;;;;;;10.76;91.06;93371.81;5158034;27;1039;-58
2023/03/11 01:45:30;;;;;;;;;;;;;;;10.86;91.72;93376.75;5158163;27;1040;-58
2023/03/11 01:47:56;;;;;;;;;;;;;;;10.96;90.84;93387.84;5158230;27;965;-57
2023/03/11 01:50:24;;;;;;;;;;;;;;;10.83;92.73;93395.88;5157971;27;1044;-58
2023/03/11 01:52:50;;;;;;;;;;;;;;;10.73;93.59;93406.97;5157901;27;1047;-58
2023/03/11 01:55:17;;;;;;;;;;;;;;;10.65;95.93;93408.00;5157653;27;1980;-58
2023/03/11 01:57:44;;;;;;;;;;;;;;;10.40;99.32;93415.78;5157861;27;1048;-58
2023/03/11 02:00:11;;;;;;;;;;;;;;;10.29;100.00;93421.66;5157653;27;1211;-58
2023/03/11 02:02:41;;;;;;;;;;;;;;;10.33;100.00;93421.09;5157949;27;972;-58
2023/03/11 02:05:08;;;;;;;;;;;;;;;10.40;100.00;93426.47;5157766;27;1031;-58
2023/03/11 02:07:34;;;;;;;;;;;;;;;10.43;100.00;93412.69;5157497;27;1111;-58
2023/03/11 02:10:01;;;;;;;;;;;;;;;10.42;100.00;93420.91;5157532;27;1048;-58
2023/03/11 02:12:29;;;;;;;;;;;;;;;10.50;100.00;93418.88;5141419;27;1522;-59
2023/03/11 02:14:56;;;;;;;;;;;;;;;10.49;100.00;93421.72;5136904;27;2000;-58
2023/03/11 02:17:22;;;;;;;;;;;;;;;10.53;99.52;93414.97;5136858;27;1013;-58
2023/03/11 02:19:57;;;;;;;;;;;;;;;10.64;99.07;93418.88;5136672;27;961;-58
2023/03/11 02:22:23;;;;;;;;;;;;;;;10.66;98.07;93424.84;5136764;27;996;-58
2023/03/11 02:24:56;;;;;;;;;;;;;;;10.63;97.87;93425.28;5136520;27;1084;-57
2023/03/11 02:27:25;;;;;;;;;;;;;;;10.65;97.52;93429.38;5136738;27;953;-57
2023/03/11 02:29:52;;;;;;;;;;;;;;;10.62;97.39;93424.41;5135979;27;1117;-58
2023/03/11 02:32:19;;;;;;;;;;;;;;;10.53;97.46;93423.81;5136579;27;1008;-58
2023/03/11 02:34:45;;;;;;;;;;;;;;;10.50;97.47;93436.75;5136528;27;1996;-58
2023/03/11 02:37:12;;;;;;;;;;;;;;;10.48;97.60;93442.28;5136174;27;969;-58
2023/03/11 02:39:43;;;;;;;;;;;;;;;10.44;97.69;93442.91;5136530;27;1021;-58
2023/03/11 02:42:12;;;;;;;;;;;;;;;10.26;97.52;93441.59;5136520;27;1044;-58
2023/03/11 02:44:40;;;;;;;;;;;;;;;9.95;99.32;93442.09;5136240;27;1040;-58
2023/03/11 02:47:06;;;;;;;;;;;;;;;10.01;99.70;93448.47;5136175;27;965;-58
2023/03/11 02:49:33;;;;;;;;;;;;;;;10.11;99.41;93454.25;5136225;27;973;-57
2023/03/11 02:51:59;;;;;;;;;;;;;;;10.14;98.52;93452.03;5135962;27;1041;-58
2023/03/11 02:54:25;;;;;;;;;;;;;;;9.91;98.58;93435.50;5136032;27;1906;-57
2023/03/11 02:56:51;;;;;;;;;;;;;;;9.84;99.62;93448.81;5135827;27;1084;-58
2023/03/11 02:59:17;;;;;;;;;;;;;;;9.95;99.48;93452.78;5135905;27;961;-58
2023/03/11 03:01:43;;;;;;;;;;;;;;;9.99;99.28;93455.88;5136135;27;1067;-58
2023/03/11 03:04:09;;;;;;;;;;;;;;;10.04;98.76;93461.44;5135942;27;945;-57
2023/03/11 03:06:35;;;;;;;;;;;;;;;9.92;98.47;93448.66;5135860;27;1212;-58
2023/03/11 03:09:01;;;;;;;;;;;;;;;9.98;98.47;93457.72;5135647;27;1096;-58
2023/03/11 03:11:27;;;;;;;;;;;;;;;10.06;97.79;93456.72;5143029;27;1537;-58
2023/03/11 03:13:53;;;;;;;;;;;;;;;10.09;97.33;93457.16;5156108;27;1103;-58
2023/03/11 03:16:19;;;;;;;;;;;;;;;9.90;97.75;93456.03;5156159;27;1981;-58
2023/03/11 03:18:46;;;;;;;;;;;;;;;9.92;97.44;93464.69;5156106;27;1052;-58
2023/03/11 03:21:12;;;;;;;;;;;;;;;9.96;96.76;93455.25;5156333;27;1008;-58
2023/03/11 03:23:38;;;;;;;;;;;;;;;9.83;97.13;93460.53;5156263;27;1035;-58
2023/03/11 03:26:04;;;;;;;;;;;;;;;9.87;97.03;93452.94;5137696;27;1646;-58
2023/03/11 03:28:30;;;;;;;;;;;;;;;9.96;96.73;93451.75;5156100;27;1004;-57
2023/03/11 03:31:02;;;;;;;;;;;;;;;10.19;95.54;93446.09;5155974;27;1056;-57
2023/03/11 03:33:28;;;;;;;;;;;;;;;10.25;94.68;93463.97;5155825;27;921;-57
2023/03/11 03:35:54;;;;;;;;;;;;;;;10.14;95.37;93440.53;5156093;27;2004;-57
2023/03/11 03:38:20;;;;;;;;;;;;;;;9.68;96.82;93428.63;5155971;27;992;-57
2023/03/11 03:40:46;;;;;;;;;;;;;;;9.71;97.83;93446.91;5155760;27;1060;-58
2023/03/11 03:43:12;;;;;;;;;;;;;;;9.85;97.66;93445.13;5154733;27;1100;-58
2023/03/11 03:45:38;;;;;;;;;;;;;;;9.89;96.94;93442.91;5155818;27;975;-57
2023/03/11 03:48:05;;;;;;;;;;;;;;;9.69;96.78;93459.59;5155951;27;1051;-57
2023/03/11 03:50:31;;;;;;;;;;;;;;;9.84;96.55;93450.66;5155742;27;1016;-57
2023/03/11 03:52:57;;;;;;;;;;;;;;;9.80;96.11;93454.75;5155741;27;1005;-58
2023/03/11 03:55:23;;;;;;;;;;;;;;;9.82;96.29;93447.38;5155736;27;2000;-57
2023/03/11 03:57:50;;;;;;;;;;;;;;;10.02;94.18;93455.47;5155798;27;969;-57
2023/03/11 04:00:16;;;;;;;;;;;;;;;9.95;93.88;93448.25;5155339;27;1045;-58
2023/03/11 04:02:42;;;;;;;;;;;;;;;9.90;93.73;93450.72;5137049;27;1049;-58
2023/03/11 04:05:08;;;;;;;;;;;;;;;9.89;93.29;93449.03;5155607;27;996;-58
2023/03/11 04:07:35;;;;;;;;;;;;;;;9.84;93.68;93440.81;5155503;27;1052;-58
2023/03/11 04:10:01;;;;;;;;;;;;;;;9.81;94.53;93451.91;5155364;27;1104;-58
2023/03/11 04:12:28;;;;;;;;;;;;;;;9.82;93.73;93458.88;5138853;27;1528;-58
2023/03/11 04:14:54;;;;;;;;;;;;;;;9.74;93.59;93451.84;5134834;27;1913;-58
2023/03/11 04:17:20;;;;;;;;;;;;;;;9.58;94.54;93452.19;5134435;27;1076;-57
2023/03/11 04:19:46;;;;;;;;;;;;;;;9.53;95.09;93460.75;5145026;27;1052;-58
2023/03/11 04:22:12;;;;;;;;;;;;;;;9.41;96.67;93451.66;5155303;27;945;-58
2023/03/11 04:24:38;;;;;;;;;;;;;;;9.45;95.69;93442.25;5155446;27;1019;-58
2023/03/11 04:27:04;;;;;;;;;;;;;;;9.52;94.71;93458.28;5155226;27;1043;-58
2023/03/11 04:29:30;;;;;;;;;;;;;;;9.55;95.35;93452.56;5155262;27;977;-58
2023/03/11 04:31:56;;;;;;;;;;;;;;;9.46;95.95;93464.41;5154929;27;1270;-58
2023/03/11 04:34:22;;;;;;;;;;;;;;;9.58;95.44;93462.84;5136590;27;1914;-58
2023/03/11 04:36:50;;;;;;;;;;;;;;;9.48;95.73;93459.69;5154953;27;1071;-58
2023/03/11 04:39:16;;;;;;;;;;;;;;;9.54;94.60;93454.41;5155125;27;1012;-58
2023/03/11 04:41:42;;;;;;;;;;;;;;;9.57;93.96;93448.66;5155017;27;968;-58
2023/03/11 04:44:08;;;;;;;;;;;;;;;9.70;93.71;93457.78;5154944;27;1107;-58
2023/03/11 04:46:34;;;;;;;;;;;;;;;9.75;93.19;93466.00;5154729;27;1040;-58
2023/03/11 04:49:00;;;;;;;;;;;;;;;9.54;93.83;93465.09;5154829;27;1066;-58
2023/03/11 04:51:26;;;;;;;;;;;;;;;9.33;93.72;93463.31;5155016;27;1015;-58
2023/03/11 04:53:52;;;;;;;;;;;;;;;9.14;94.18;93471.97;5156981;27;992;-57
2023/03/11 04:56:18;;;;;;;;;;;;;;;8.99;95.13;93472.91;5158888;27;1913;-58
2023/03/11 04:58:44;;;;;;;;;;;;;;;9.06;95.19;93480.13;5158992;27;972;-58
2023/03/11 05:01:10;;;;;;;;;;;;;;;8.90;94.84;93482.03;5159031;27;980;-58
2023/03/11 05:03:36;;;;;;;;;;;;;;;9.02;94.60;93485.00;5159119;27;992;-57
2023/03/11 05:06:03;;;;;;;;;;;;;;;9.16;94.41;93492.09;5158786;27;1095;-58
2023/03/11 05:08:29;;;;;;;;;;;;;;;9.15;94.37;93490.44;5158786;27;952;-57
2023/03/11 05:10:55;;;;;;;;;;;;;;;9.05;94.72;93487.31;5155663;27;1566;-58
2023/03/11 05:13:21;;;;;;;;;;;;;;;9.18;94.25;93498.06;5137685;27;1328;-56
2023/03/11 05:15:47;;;;;;;;;;;;;;;9.11;94.36;93488.38;5137810;27;2019;-57
2023/03/11 05:18:14;;;;;;;;;;;;;;;9.08;94.65;93483.41;5119420;27;1000;-57
2023/03/11 05:20:40;;;;;;;;;;;;;;;9.03;94.82;93502.66;5137809;27;1087;-57
2023/03/11 05:23:06;;;;;;;;;;;;;;;9.07;94.93;93497.75;5137913;27;1039;-57
2023/03/11 05:25:32;;;;;;;;;;;;;;;9.16;94.47;93502.78;5137566;27;1092;-57
2023/03/11 05:27:58;;;;;;;;;;;;;;;9.31;94.53;93504.50;5137945;27;978;-57
2023/03/11 05:30:24;;;;;;;;;;;;;;;9.29;94.32;93501.22;5137538;27;996;-57
2023/03/11 05:32:50;;;;;;;;;;;;;;;9.48;93.78;93500.53;5119235;27;1021;-57
2023/03/11 05:35:16;;;;;;;;;;;;;;;9.55;92.70;93498.75;5137314;27;1959;-56
2023/03/11 05:37:42;;;;;;;;;;;;;;;9.36;92.53;93496.75;5137775;27;1055;-57
2023/03/11 05:40:09;;;;;;;;;;;;;;;9.34;93.25;93502.28;5137415;27;1032;-57
2023/03/11 05:42:35;;;;;;;;;;;;;;;9.35;93.01;93500.44;5137589;27;1035;-57
2023/03/11 05:45:02;;;;;;;;;;;;;;;9.50;92.88;93508.34;5137378;27;970;-57
2023/03/11 05:47:28;;;;;;;;;;;;;;;9.73;91.73;93514.25;5137147;27;977;-58
2023/03/11 05:49:54;;;;;;;;;;;;;;;10.08;90.63;93524.09;5137225;27;1083;-57
2023/03/11 05:52:20;;;;;;;;;;;;;;;10.47;88.22;93523.47;5137097;27;1069;-58
2023/03/11 05:54:50;;;;;;;;;;;;;;;10.33;88.39;93535.94;5137293;27;1983;-58
2023/03/11 05:57:17;;;;;;;;;;;;;;;10.10;90.44;93538.06;5137019;27;1000;-57
2023/03/11 05:59:43;;;;;;;;;;;;;;;10.49;87.88;93533.94;5137284;27;1086;-57
2023/03/11 06:02:09;;;;;;;;;;;;;;;11.47;83.61;93537.00;5137207;27;1053;-57
2023/03/11 06:04:35;;;;;;;;;;;;;;;13.66;73.85;93523.78;5117801;28;1314;-58
2023/03/11 06:07:01;;;;;;;;;;;;;;;14.43;70.90;93536.03;5136755;27;989;-58
2023/03/11 06:09:27;;;;;;;;;;;;;;;13.50;73.84;93526.19;5136697;27;1029;-58
2023/03/11 06:11:53;;;;;;;;;;;;;;;13.30;75.66;93529.84;5137010;27;1684;-58
2023/03/11 06:14:19;;;;;;;;;;;;;;;12.80;77.49;93535.06;5136537;27;1980;-57
2023/03/11 06:16:46;;;;;;;;;;;;;;;12.17;79.42;93530.38;5136703;27;988;-58
2023/03/11 06:19:12;;;;;;;;;;;;;;;11.86;80.66;93530.00;5136749;27;956;-57
2023/03/11 06:21:38;;;;;;;;;;;;;;;11.75;81.46;93529.81;5136814;27;1154;-58
2023/03/11 06:24:04;;;;;;;;;;;;;;;13.12;79.01;93521.69;5136829;27;952;-58
2023/03/11 06:26:30;;;;;;;;;;;;;;;13.78;74.46;93526.56;5136787;27;1039;-58
2023/03/11 06:28:56;;;;;;;;;;;;;;;13.45;75.22;93525.00;5136485;27;1056;-58
2023/03/11 06:31:24;;;;;;;;;;;;;;;12.72;78.14;93521.91;5136290;27;1048;-59
2023/03/11 06:33:50;;;;;;;;;;;;;;;12.82;79.32;93520.41;5136366;27;1076;-57
2023/03/11 06:36:18;;;;;;;;;;;;;;;13.91;74.13;93520.25;5136382;27;1910;-58
2023/03/11 06:38:45;;;;;;;;;;;;;;;13.72;75.50;93526.63;5136417;27;964;-58
2023/03/11 06:41:12;;;;;;;;;;;;;;;14.67;70.12;93520.91;5136151;27;1060;-58
2023/03/11 06:43:38;;;;;;;;;;;;;;;14.12;70.04;93527.06;5136510;27;1191;-59
2023/03/11 06:46:11;;;;;;;;;;;;;;;13.76;73.78;93517.91;5118171;27;969;-59
2023/03/11 06:48:37;;;;;;;;;;;;;;;13.52;74.03;93521.44;5136041;27;1044;-58
2023/03/11 06:51:04;;;;;;;;;;;;;;;13.33;75.18;93526.72;5136369;27;1023;-59
2023/03/11 06:53:30;;;;;;;;;;;;;;;15.14;68.70;93528.34;5135832;27;1103;-59
2023/03/11 06:56:00;;;;;;;;;;;;;;;16.45;64.68;93525.59;5135931;27;1914;-59
2023/03/11 06:58:26;;;;;;;;;;;;;;;16.65;62.37;93524.38;5135718;27;1016;-58
2023/03/11 07:00:52;;;;;;;;;;;;;;;16.57;65.12;93534.47;5135826;27;1111;-58
2023/03/11 07:03:19;;;;;;;;;;;;;;;16.66;63.34;93528.72;5135636;27;1059;-58
2023/03/11 07:05:45;;;;;;;;;;;;;;;17.21;61.26;93527.41;5135752;27;1127;-59
2023/03/11 07:08:11;;;;;;;;;;;;;;;17.45;59.73;93525.41;5135904;27;1004;-58
2023/03/11 07:10:37;;;;;;;;;;;;;;;17.62;57.79;93523.53;5138743;27;1048;-59
2023/03/11 07:13:03;;;;;;;;;;;;;;;18.03;55.87;93509.91;5135308;27;1202;-59
2023/03/11 07:15:29;;;;;;;;;;;;;;;18.36;57.16;93519.84;5135364;27;1909;-60
2023/03/11 07:17:55;;;;;;;;;;;;;;;18.41;56.72;93516.41;5135243;27;1032;-60
2023/03/11 07:20:22;;;;;;;;;;;;;;;18.14;55.03;93507.09;5135366;27;1588;-60
2023/03/11 07:22:48;;;;;;;;;;;;;;;18.28;57.34;93507.56;5135474;27;958;-60
2023/03/11 07:25:14;;;;;;;;;;;;;;;18.66;55.60;93507.81;5135214;27;1056;-60
2023/03/11 07:27:40;;;;;;;;;;;;;;;19.25;49.58;93516.09;5135165;27;1040;-60
2023/03/11 07:30:06;;;;;;;;;;;;;;;19.27;51.79;93505.00;5135518;27;1036;-61
2023/03/11 07:32:32;;;;;;;;;;;;;;;19.46;51.37;93502.75;5117077;27;1005;-60
2023/03/11 07:34:58;;;;;;;;;;;;;;;19.96;46.12;93509.75;5135030;27;1997;-61
2023/03/11 07:37:24;;;;;;;;;;;;;;;20.24;46.60;93510.47;5135130;27;966;-61
2023/03/11 07:39:50;;;;;;;;;;;;;;;19.66;48.14;93500.25;5116868;27;1074;-62
2023/03/11 07:42:17;;;;;;;;;;;;;;;19.81;49.18;93498.78;5134881;27;910;-62
2023/03/11 07:44:43;;;;;;;;;;;;;;;20.09;50.84;93486.81;5134949;27;1041;-61
2023/03/11 07:47:09;;;;;;;;;;;;;;;19.84;50.75;93477.41;5134901;27;1575;-61
2023/03/11 07:49:35;;;;;;;;;;;;;;;19.28;50.58;93474.97;5120714;27;2932;-61
2023/03/11 07:52:02;;;;;;;;;;;;;;;18.80;53.27;93468.50;5135089;27;976;-60
2023/03/11 07:54:28;;;;;;;;;;;;;;;18.43;50.90;93469.09;5134598;27;1909;-61
2023/03/11 07:56:54;;;;;;;;;;;;;;;18.27;52.70;93461.84;5134574;27;1100;-61
2023/03/11 07:59:21;;;;;;;;;;;;;;;18.69;49.84;93467.53;5116298;27;1131;-61
2023/03/11 08:01:47;;;;;;;;;;;;;;;18.90;49.24;93470.50;5134645;27;1025;-62
2023/03/11 08:04:15;;;;;;;;;;;;;;;19.51;49.20;93456.75;5116494;27;969;-63
2023/03/11 08:06:42;;;;;;;;;;;;;;;20.05;48.89;93464.81;5116567;27;1002;-63
2023/03/11 08:09:09;;;;;;;;;;;;;;;20.23;46.54;93470.88;5134187;27;2540;-63
2023/03/11 08:11:35;;;;;;;;;;;;;;;18.98;45.84;93461.09;5129309;27;2837;-63
2023/03/11 08:14:02;;;;;;;;;;;;;;;19.72;46.93;93456.94;5154951;27;1140;-63
2023/03/11 08:16:28;;;;;;;;;;;;;;;20.33;46.86;93449.22;5154999;27;1905;-61
2023/03/11 08:18:54;;;;;;;;;;;;;;;20.76;43.53;93455.44;5155098;27;1045;-61
2023/03/11 08:21:22;;;;;;;;;;;;;;;20.91;43.96;93454.69;5154981;27;1045;-62
2023/03/11 08:23:48;;;;;;;;;;;;;;;21.25;42.07;93454.22;5155376;27;1218;-62
2023/03/11 08:26:16;;;;;;;;;;;;;;;20.94;42.69;93453.31;5154779;27;929;-62
2023/03/11 08:28:43;;;;;;;;;;;;;;;20.61;43.27;93442.59;5154713;27;976;-63
2023/03/11 08:31:12;;;;;;;;;;;;;;;20.68;43.01;93436.94;5155214;27;1031;-63
2023/03/11 08:33:39;;;;;;;;;;;;;;;20.77;43.67;93445.38;5154958;27;996;-61
2023/03/11 08:36:05;;;;;;;;;;;;;;;20.69;40.28;93437.75;5154831;27;2288;-62
2023/03/11 08:38:31;;;;;;;;;;;;;;;20.70;43.96;93421.19;5136521;27;1065;-61
2023/03/11 08:40:58;;;;;;;;;;;;;;;20.77;43.29;93424.50;5155091;27;977;-64
2023/03/11 08:43:24;;;;;;;;;;;;;;;20.74;45.00;93416.06;5136641;27;1567;-62
2023/03/11 08:45:50;;;;;;;;;;;;;;;20.57;42.99;93421.66;5154838;27;1104;-65
2023/03/11 08:48:16;;;;;;;;;;;;;;;20.12;44.17;93409.50;5154902;27;1056;-65
2023/03/11 08:50:42;;;;;;;;;;;;;;;20.03;45.67;93395.59;5154944;27;980;-65
2023/03/11 08:53:09;;;;;;;;;;;;;;;20.54;44.17;93406.69;5154691;27;1056;-61
2023/03/11 08:55:35;;;;;;;;;;;;;;;20.96;45.58;93396.81;5154446;27;1914;-64
2023/03/11 08:58:01;;;;;;;;;;;;;;;21.35;43.57;93404.50;5155036;27;1262;-67
2023/03/11 09:00:28;;;;;;;;;;;;;;;21.21;40.08;93410.47;5154862;27;1012;-64
2023/03/11 09:02:54;;;;;;;;;;;;;;;21.33;43.68;93409.41;5155003;27;1036;-62
2023/03/11 09:05:20;;;;;;;;;;;;;;;21.29;43.48;93405.59;5154512;27;1037;-63
2023/03/11 09:07:46;;;;;;;;;;;;;;;21.29;40.88;93417.28;5136379;27;1028;-62
2023/03/11 09:10:14;;;;;;;;;;;;;;;21.38;39.67;93420.25;5136017;27;1025;-66
2023/03/11 09:12:40;;;;;;;;;;;;;;;21.29;40.36;93411.84;5118364;28;1354;-65
2023/03/11 09:15:07;;;;;;;;;;;;;;;21.43;40.73;93406.69;5133704;28;1893;-66
2023/03/11 09:17:33;;;;;;;;;;;;;;;20.30;40.77;93406.34;5133758;28;1037;-66
2023/03/11 09:19:59;;;;;;;;;;;;;;;19.93;41.53;93401.78;5133674;28;988;-66
2023/03/11 09:22:26;;;;;;;;;;;;;;;19.33;42.11;93397.50;5133908;28;1015;-66
2023/03/11 09:24:52;;;;;;;;;;;;;;;18.86;44.11;93388.97;5133840;28;990;-65
2023/03/11 09:27:18;;;;;;;;;;;;;;;19.13;42.42;93387.31;5133541;28;1029;-66
2023/03/11 09:29:44;;;;;;;;;;;;;;;19.93;42.51;93395.56;5133665;28;1122;-66
2023/03/11 09:32:13;;;;;;;;;;;;;;;19.85;40.91;93394.16;5133548;28;1032;-66
2023/03/11 09:34:39;;;;;;;;;;;;;;;19.14;43.73;93381.63;5133562;28;1913;-66
2023/03/11 09:37:06;;;;;;;;;;;;;;;18.52;43.38;93391.81;5133611;28;1057;-65
2023/03/11 09:39:32;;;;;;;;;;;;;;;18.11;45.18;93390.50;5133555;27;1044;-63
2023/03/11 09:42:02;;;;;;;;;;;;;;;17.70;44.68;93384.47;5137188;27;1137;-61
2023/03/11 09:44:34;;;;;;;;;;;;;;;17.32;46.19;93384.22;5137237;27;1115;-61
2023/03/11 09:47:14;;;;;;;;;;;;;;;16.93;47.12;93378.69;5137242;27;1055;-61
2023/03/11 09:49:40;;;;;;;;;;;;;;;16.62;49.60;93382.69;5137147;27;1045;-62
2023/03/11 09:52:12;;;;;;;;;;;;;;;16.45;48.13;93376.41;5119017;27;1043;-59
2023/03/11 09:54:43;;;;;;;;;;;;;;;16.39;48.95;93395.22;5137024;27;1906;-61
2023/03/11 09:57:13;;;;;;;;;;;;;;;16.33;47.38;93400.72;5137170;27;1015;-61
2023/03/11 09:59:42;;;;;;;;;;;;;;;16.32;47.33;93407.19;5136850;27;1020;-60
2023/03/11 10:02:13;;;;;;;;;;;;;;;16.21;47.97;93408.84;5136882;27;1138;-61
2023/03/11 10:05:00;;;;;;;;;;;;;;;16.08;48.04;93407.25;5137177;27;1012;-61
2023/03/11 10:07:31;;;;;;;;;;;;;;;15.96;49.53;93401.88;5118953;27;1000;-61
2023/03/11 10:09:58;;;;;;;;;;;;;;;16.02;48.51;93400.13;5136879;27;1013;-62
2023/03/11 10:12:42;;;;;;;;;;;;;;;16.08;49.05;93414.50;5152151;27;1302;-62
2023/03/11 10:15:11;;;;;;;;;;;;;;;16.22;48.40;93412.38;5157589;27;1964;-61
2023/03/11 10:18:01;;;;;;;;;;;;;;;16.37;48.49;93424.31;5139099;27;1111;-61
2023/03/11 10:20:45;;;;;;;;;;;;;;;16.42;49.86;93412.78;5157296;27;1123;-61
2023/03/11 10:23:37;;;;;;;;;;;;;;;16.40;51.19;93417.59;5157434;27;1027;-61
2023/03/11 10:26:09;;;;;;;;;;;;;;;16.39;50.04;93415.97;5152508;27;1070;-61
2023/03/11 10:28:38;;;;;;;;;;;;;;;16.57;49.83;93410.38;5157305;27;1024;-61
2023/03/11 10:31:17;;;;;;;;;;;;;;;16.65;48.92;93401.09;5157391;27;987;-63
2023/03/11 10:33:47;;;;;;;;;;;;;;;16.98;47.28;93397.69;5157111;27;1020;-62
2023/03/11 10:36:22;;;;;;;;;;;;;;;17.10;47.22;93386.00;5157199;27;1975;-60
2023/03/11 10:38:51;;;;;;;;;;;;;;;17.85;47.19;93383.91;5156910;27;1068;-60
2023/03/11 10:41:29;;;;;;;;;;;;;;;18.01;48.04;93388.47;5156733;27;1091;-60
2023/03/11 10:43:58;;;;;;;;;;;;;;;17.82;47.92;93379.00;5156869;27;985;-59
2023/03/11 10:46:26;;;;;;;;;;;;;;;17.62;47.02;93387.63;5138231;27;1033;-59
2023/03/11 10:48:52;;;;;;;;;;;;;;;17.43;46.78;93390.56;5157026;27;957;-59
2023/03/11 10:51:22;;;;;;;;;;;;;;;17.23;46.68;93382.16;5155967;27;1029;-62
2023/03/11 10:53:50;;;;;;;;;;;;;;;17.16;46.80;93382.31;5156711;27;1035;-61
2023/03/11 10:56:26;;;;;;;;;;;;;;;17.05;46.54;93381.31;5138456;27;1910;-57
2023/03/11 10:58:52;;;;;;;;;;;;;;;17.00;46.42;93378.53;5156451;27;1080;-62
2023/03/11 11:01:20;;;;;;;;;;;;;;;16.96;46.83;93359.31;5156392;27;1104;-64
2023/03/11 11:03:48;;;;;;;;;;;;;;;17.14;43.63;93362.84;5156455;27;1036;-61
2023/03/11 11:06:20;;;;;;;;;;;;;;;17.47;44.86;93369.28;5156281;27;1037;-59
2023/03/11 11:08:46;;;;;;;;;;;;;;;17.47;43.94;93377.38;5156327;27;1096;-61
2023/03/11 11:11:22;;;;;;;;;;;;;;;17.52;43.72;93372.06;5150754;27;1535;-60
2023/03/11 11:13:54;;;;;;;;;;;;;;;17.64;42.92;93375.50;5135380;27;1356;-63
2023/03/11 11:16:21;;;;;;;;;;;;;;;17.74;41.80;93370.25;5135850;27;1960;-61
2023/03/11 11:18:48;;;;;;;;;;;;;;;18.07;42.13;93365.03;5135743;27;1031;-60
2023/03/11 11:21:16;;;;;;;;;;;;;;;18.11;42.67;93374.25;5135376;27;1107;-62
2023/03/11 11:23:45;;;;;;;;;;;;;;;18.00;40.77;93369.78;5117064;27;1049;-62
2023/03/11 11:26:20;;;;;;;;;;;;;;;18.16;39.40;93362.72;5135419;27;1012;-62
2023/03/11 11:29:03;;;;;;;;;;;;;;;18.34;40.28;93374.03;5135211;27;1104;-62
2023/03/11 11:31:29;;;;;;;;;;;;;;;18.16;41.17;93368.13;5135141;27;1045;-61
2023/03/11 11:33:56;;;;;;;;;;;;;;;18.21;41.31;93365.47;5135351;27;1040;-60
2023/03/11 11:36:24;;;;;;;;;;;;;;;18.29;40.17;93362.34;5134932;27;1901;-61
2023/03/11 11:38:53;;;;;;;;;;;;;;;18.25;40.38;93366.59;5134890;27;1024;-61
2023/03/11 11:41:21;;;;;;;;;;;;;;;18.05;40.17;93367.16;5134594;27;1113;-63
2023/03/11 11:44:05;;;;;;;;;;;;;;;17.94;40.63;93355.38;5134921;27;1096;-62
2023/03/11 11:46:42;;;;;;;;;;;;;;;17.71;41.87;93353.69;5134739;27;1103;-62
2023/03/11 11:49:27;;;;;;;;;;;;;;;17.50;42.65;93353.41;5134776;27;976;-62
2023/03/11 11:52:02;;;;;;;;;;;;;;;17.41;43.15;93348.66;5134721;27;1045;-62
2023/03/11 11:54:32;;;;;;;;;;;;;;;16.96;42.92;93351.22;5134404;27;1184;-62
2023/03/11 11:57:00;;;;;;;;;;;;;;;16.81;43.83;93350.09;5134420;27;1061;-62
2023/03/11 11:59:26;;;;;;;;;;;;;;;16.57;43.62;93339.44;5134609;27;1040;-61
2023/03/11 12:01:52;;;;;;;;;;;;;;;16.30;44.97;93321.16;5134982;27;1032;-61
2023/03/11 12:04:29;;;;;;;;;;;;;;;16.26;44.71;93329.94;5134032;27;961;-62
2023/03/11 12:07:14;;;;;;;;;;;;;;;16.15;45.42;93324.38;5116539;27;1776;-62
2023/03/11 12:09:59;;;;;;;;;;;;;;;15.99;45.53;93325.09;5134633;27;993;-60
2023/03/11 12:12:35;;;;;;;;;;;;;;;15.92;45.29;93327.16;5150268;27;1526;-61
2023/03/11 12:15:01;;;;;;;;;;;;;;;15.86;45.97;93318.13;5155059;27;1917;-62
2023/03/11 12:17:29;;;;;;;;;;;;;;;15.96;46.54;93307.56;5155371;27;1012;-62
2023/03/11 12:19:58;;;;;;;;;;;;;;;16.03;46.39;93299.34;5155058;27;1566;-61
2023/03/11 12:22:24;;;;;;;;;;;;;;;16.02;44.98;93313.88;5154895;27;980;-62
2023/03/11 12:24:50;;;;;;;;;;;;;;;16.10;45.68;93300.00;5154998;27;1220;-62
2023/03/11 12:27:26;;;;;;;;;;;;;;;16.15;46.84;93302.00;5155108;27;1020;-62
2023/03/11 12:29:58;;;;;;;;;;;;;;;16.25;45.93;93306.75;5155294;27;1047;-62
2023/03/11 12:32:38;;;;;;;;;;;;;;;16.36;46.47;93292.41;5154981;27;1016;-62
2023/03/11 12:35:23;;;;;;;;;;;;;;;16.42;45.66;93299.50;5154895;27;1909;-62
2023/03/11 12:37:58;;;;;;;;;;;;;;;16.39;44.98;93303.53;5155045;27;1032;-62
2023/03/11 12:40:43;;;;;;;;;;;;;;;16.38;45.47;93303.75;5155078;27;988;-63
2023/03/11 12:43:21;;;;;;;;;;;;;;;16.20;46.02;93311.00;5154892;27;1020;-62
2023/03/11 12:45:49;;;;;;;;;;;;;;;16.20;45.23;93315.53;5136426;27;1100;-62
2023/03/11 12:48:30;;;;;;;;;;;;;;;16.14;46.93;93322.75;5155051;27;1067;-63
2023/03/11 12:50:56;;;;;;;;;;;;;;;16.14;45.51;93328.13;5154694;27;1112;-63
2023/03/11 12:53:41;;;;;;;;;;;;;;;15.95;46.25;93326.66;5154705;27;1134;-62
2023/03/11 12:56:19;;;;;;;;;;;;;;;15.85;46.50;93324.56;5154913;27;1984;-63
2023/03/11 12:58:54;;;;;;;;;;;;;;;15.73;45.45;93315.69;5154784;27;1048;-62
2023/03/11 13:01:29;;;;;;;;;;;;;;;15.70;46.37;93316.94;5154728;27;980;-61
2023/03/11 13:04:03;;;;;;;;;;;;;;;15.71;45.79;93315.91;5154752;27;1043;-62